Time;durP1;ratioP1;P1;durP2;ratioP2;P2;SDS_P1;SDS_P2;PMS_P1;PMS_P2;Temp;Humidity;BMP_temperature;BMP_pressure;BME280_temperature;BME280_humidity;BME280_pressure;Samples;Min_cycle;Max_cycle;Signal;HPM_P1;HPM_P2
2021/10/26 06:07:35;;;;;;;2.83;0.80;;;17.60;75.70;;;;;;5095232;27;20983;-66
2021/10/26 06:10:01;;;;;;;1.48;0.68;;;17.50;76.50;;;;;;5063025;28;20025;-66
2021/10/26 06:12:30;;;;;;;1.40;0.40;;;17.50;76.50;;;;;;5079117;28;20020;-66
2021/10/26 06:14:55;;;;;;;1.83;0.70;;;17.50;76.70;;;;;;5081892;28;20008;-66
2021/10/26 06:17:21;;;;;;;1.50;1.00;;;17.60;76.90;;;;;;5079430;28;20020;-66
2021/10/26 06:19:47;;;;;;;1.48;0.73;;;17.60;76.90;;;;;;5075548;28;20033;-66
2021/10/26 06:22:12;;;;;;;1.10;0.40;;;17.70;76.90;;;;;;5079984;28;20017;-66
2021/10/26 06:24:38;;;;;;;0.88;0.32;;;17.80;77.00;;;;;;5079679;28;20031;-66
2021/10/26 06:27:04;;;;;;;1.45;0.40;;;17.90;76.90;;;;;;5077779;28;20024;-66
2021/10/26 06:29:29;;;;;;;0.63;0.40;;;17.90;76.80;;;;;;5079134;28;20496;-66
2021/10/26 06:31:55;;;;;;;3.00;0.95;;;18.00;76.70;;;;;;5069668;28;20025;-67
2021/10/26 06:34:21;;;;;;;1.02;0.70;;;18.00;76.60;;;;;;5068687;28;20496;-66
2021/10/26 06:36:46;;;;;;;4.65;0.70;;;17.90;76.40;;;;;;5066760;28;20021;-66
2021/10/26 06:39:12;;;;;;;1.15;0.60;;;18.00;76.30;;;;;;5068363;28;20036;-66
2021/10/26 06:41:37;;;;;;;2.38;0.40;;;18.00;76.30;;;;;;5066728;28;20154;-66
2021/10/26 06:44:03;;;;;;;1.15;0.50;;;18.00;76.20;;;;;;5069267;28;20026;-66
2021/10/26 06:46:29;;;;;;;3.45;0.68;;;18.00;76.10;;;;;;5070898;28;20025;-66
2021/10/26 06:48:55;;;;;;;6.75;1.10;;;18.10;76.10;;;;;;5076831;28;20024;-66
2021/10/26 06:51:20;;;;;;;3.28;1.20;;;18.10;76.10;;;;;;5086813;28;20046;-66
2021/10/26 06:53:46;;;;;;;8.80;1.30;;;18.10;76.00;;;;;;5088054;28;20143;-66
2021/10/26 06:56:14;;;;;;;4.28;0.90;;;18.10;75.90;;;;;;5087052;28;20481;-66
2021/10/26 06:58:40;;;;;;;6.60;1.30;;;18.10;75.90;;;;;;5086961;28;20099;-66
2021/10/26 07:01:08;;;;;;;3.47;1.42;;;18.20;75.90;;;;;;5086780;28;20147;-66
2021/10/26 07:03:35;;;;;;;5.05;1.48;;;18.20;75.90;;;;;;5088014;28;20017;-66
2021/10/26 07:06:04;;;;;;;6.40;1.60;;;18.20;75.90;;;;;;5070079;28;20048;-66
2021/10/26 07:08:30;;;;;;;4.68;1.10;;;18.20;75.70;;;;;;5052349;28;20025;-66
2021/10/26 07:10:57;;;;;;;4.53;1.20;;;18.20;75.70;;;;;;5068197;28;20120;-66
2021/10/26 07:13:23;;;;;;;5.05;1.08;;;18.20;75.60;;;;;;5068550;28;20024;-66
2021/10/26 07:15:49;;;;;;;4.03;1.20;;;18.20;75.60;;;;;;5067242;28;20028;-66
2021/10/26 07:18:15;;;;;;;6.32;1.85;;;18.20;75.50;;;;;;5058930;28;20063;-66
2021/10/26 07:20:40;;;;;;;4.15;1.33;;;18.20;75.50;;;;;;5054921;28;20025;-66
2021/10/26 07:23:06;;;;;;;4.57;1.60;;;18.30;75.50;;;;;;5053597;28;20039;-66
2021/10/26 07:25:31;;;;;;;6.93;1.80;;;18.30;75.40;;;;;;5053821;28;20041;-66
2021/10/26 07:28:00;;;;;;;4.82;1.50;;;18.30;75.40;;;;;;5054868;28;20021;-66
2021/10/26 07:30:29;;;;;;;5.65;1.80;;;18.30;75.40;;;;;;5054921;28;20021;-66
2021/10/26 07:32:56;;;;;;;8.50;1.33;;;18.30;75.40;;;;;;5053574;28;20024;-66
2021/10/26 07:35:23;;;;;;;7.38;1.80;;;18.30;75.40;;;;;;5053469;28;20047;-66
2021/10/26 07:37:49;;;;;;;6.95;1.30;;;18.30;75.30;;;;;;5053425;28;20033;-66
2021/10/26 07:40:15;;;;;;;6.03;1.38;;;18.30;75.20;;;;;;5054592;28;20385;-66
2021/10/26 07:42:41;;;;;;;6.20;1.77;;;18.30;75.20;;;;;;5053494;28;20017;-66
2021/10/26 07:45:07;;;;;;;5.57;1.80;;;18.30;75.20;;;;;;5069798;28;20102;-66
2021/10/26 07:47:34;;;;;;;7.72;1.80;;;18.30;75.10;;;;;;5054560;28;20531;-66
2021/10/26 07:50:00;;;;;;;4.07;1.80;;;18.30;75.10;;;;;;5053090;28;20103;-67
2021/10/26 07:52:26;;;;;;;10.35;2.03;;;18.30;75.10;;;;;;5054618;28;20044;-67
2021/10/26 07:54:55;;;;;;;5.85;1.60;;;18.30;75.10;;;;;;5053103;28;20082;-66
2021/10/26 07:57:22;;;;;;;5.35;1.52;;;18.30;75.10;;;;;;5054394;28;20021;-66
2021/10/26 07:59:48;;;;;;;6.93;1.70;;;18.30;75.10;;;;;;5054239;28;20558;-66
2021/10/26 08:02:14;;;;;;;5.22;1.60;;;18.30;75.00;;;;;;5053051;28;20111;-66
2021/10/26 08:04:41;;;;;;;5.75;1.30;;;18.30;75.00;;;;;;5052764;28;20021;-66
2021/10/26 08:07:07;;;;;;;5.43;2.08;;;18.30;74.90;;;;;;5053564;28;20033;-66
2021/10/26 08:09:33;;;;;;;6.13;1.23;;;18.30;74.90;;;;;;5054141;28;20445;-66
2021/10/26 08:11:59;;;;;;;6.00;1.50;;;18.30;74.90;;;;;;5053068;28;20108;-66
2021/10/26 08:14:24;;;;;;;5.75;1.55;;;18.30;74.80;;;;;;5069421;28;20064;-67
2021/10/26 08:16:50;;;;;;;3.63;1.10;;;18.30;74.80;;;;;;5053931;28;20508;-67
2021/10/26 08:19:16;;;;;;;6.47;1.45;;;18.30;74.80;;;;;;5052675;28;20036;-66
2021/10/26 08:21:42;;;;;;;4.80;1.50;;;18.30;74.80;;;;;;5053843;28;20478;-66
2021/10/26 08:24:08;;;;;;;5.95;1.58;;;18.30;74.80;;;;;;5053871;28;20109;-66
2021/10/26 08:26:39;;;;;;;5.15;1.55;;;18.30;74.70;;;;;;5052599;28;20021;-66
2021/10/26 08:29:53;;;;;;;5.32;1.23;;;18.30;74.70;;;;;;5051601;28;20101;-66
2021/10/26 08:32:12;;;;;;;3.03;1.63;;;18.30;74.80;;;;;;5045308;28;20033;-66
2021/10/26 08:34:46;;;;;;;4.90;1.27;;;18.30;74.80;;;;;;5053580;28;20064;-66
2021/10/26 08:37:12;;;;;;;3.15;1.20;;;18.30;74.70;;;;;;5053597;28;20432;-66
2021/10/26 08:39:41;;;;;;;4.03;1.13;;;18.20;74.60;;;;;;5052373;28;20025;-66
2021/10/26 08:42:10;;;;;;;4.78;1.30;;;18.30;74.70;;;;;;5052283;28;20059;-66
2021/10/26 08:44:36;;;;;;;3.28;1.30;;;18.30;74.70;;;;;;5052465;28;20060;-66
2021/10/26 08:47:01;;;;;;;2.15;1.08;;;18.30;74.70;;;;;;5051786;28;20061;-66
2021/10/26 08:49:27;;;;;;;4.10;1.30;;;18.30;74.70;;;;;;5052238;28;20090;-66
2021/10/26 08:51:53;;;;;;;6.38;1.48;;;18.30;74.70;;;;;;5052193;28;20027;-67
2021/10/26 08:54:19;;;;;;;6.30;1.25;;;18.20;74.60;;;;;;5053205;28;20461;-66
2021/10/26 08:56:47;;;;;;;3.83;1.08;;;18.30;74.60;;;;;;5052193;28;20059;-66
2021/10/26 08:59:20;;;;;;;3.17;1.02;;;18.30;74.50;;;;;;5051890;28;20028;-66
2021/10/26 09:01:47;;;;;;;4.68;1.30;;;18.30;74.50;;;;;;5051685;28;20386;-66
2021/10/26 09:04:13;;;;;;;5.53;1.20;;;18.30;74.50;;;;;;5051797;28;20500;-66
2021/10/26 09:06:50;;;;;;;2.88;0.95;;;18.30;74.50;;;;;;5052826;28;20033;-66
2021/10/26 09:09:20;;;;;;;4.50;1.30;;;18.30;74.50;;;;;;5051779;28;20032;-66
2021/10/26 09:17:49;;;;;;;2.75;1.13;;;18.30;74.10;;;;;;5052900;28;20452;-66
2021/10/26 09:20:26;;;;;;;3.90;1.35;;;18.20;74.40;;;;;;5051408;28;20482;-66
2021/10/26 09:22:55;;;;;;;5.20;1.38;;;18.30;74.30;;;;;;5052773;28;20017;-66
2021/10/26 09:25:21;;;;;;;4.20;1.48;;;18.20;74.40;;;;;;5035147;28;20054;-67
2021/10/26 09:27:49;;;;;;;3.42;1.08;;;18.20;74.40;;;;;;5051566;28;20025;-66
2021/10/26 09:30:16;;;;;;;2.75;1.05;;;18.20;74.30;;;;;;5051018;28;20025;-66
2021/10/26 09:32:44;;;;;;;2.30;1.05;;;18.20;74.30;;;;;;5052854;28;20024;-66
2021/10/26 09:35:11;;;;;;;2.30;1.00;;;18.20;74.20;;;;;;5034884;28;20437;-66
2021/10/26 09:37:42;;;;;;;3.53;1.30;;;18.20;74.30;;;;;;5052612;28;20017;-66
2021/10/26 09:40:08;;;;;;;4.78;1.60;;;18.30;74.20;;;;;;5052239;28;20037;-66
2021/10/26 09:42:45;;;;;;;3.05;1.27;;;18.20;74.20;;;;;;5051355;28;20114;-66
2021/10/26 09:45:32;;;;;;;4.22;1.20;;;18.20;74.10;;;;;;5050868;28;20028;-66
2021/10/26 09:48:13;;;;;;;3.20;1.08;;;18.30;73.90;;;;;;5052480;28;20032;-67
2021/10/26 09:50:40;;;;;;;3.72;0.88;;;18.30;74.10;;;;;;5052067;28;20498;-66
2021/10/26 09:53:13;;;;;;;1.67;0.65;;;18.20;74.10;;;;;;5052286;28;20017;-66
2021/10/26 09:55:47;;;;;;;3.17;1.23;;;18.20;74.10;;;;;;5051139;28;20106;-66
2021/10/26 09:58:14;;;;;;;2.72;0.90;;;18.20;74.10;;;;;;5051040;28;20028;-66
2021/10/26 10:00:45;;;;;;;4.07;1.10;;;18.20;74.10;;;;;;5050730;28;20398;-66
2021/10/26 10:03:23;;;;;;;2.92;1.00;;;18.20;74.10;;;;;;5051084;28;20037;-66
2021/10/26 10:06:00;;;;;;;5.82;1.20;;;18.20;74.00;;;;;;5050769;28;20036;-66
2021/10/26 10:08:33;;;;;;;3.38;1.00;;;18.30;74.00;;;;;;5050836;28;20108;-66
2021/10/26 10:11:05;;;;;;;1.83;0.65;;;18.20;74.00;;;;;;5051106;28;20097;-66
2021/10/26 10:13:31;;;;;;;2.15;0.90;;;18.20;74.00;;;;;;5051867;28;20021;-66
2021/10/26 10:15:57;;;;;;;2.65;1.00;;;18.20;74.00;;;;;;5050922;28;20037;-66
2021/10/26 10:18:22;;;;;;;4.25;1.10;;;18.20;74.00;;;;;;5034067;28;20029;-66
2021/10/26 10:20:52;;;;;;;2.92;0.90;;;18.20;74.00;;;;;;5034554;28;20041;-67
2021/10/26 10:23:19;;;;;;;3.75;1.05;;;18.20;73.90;;;;;;5034246;28;20051;-67
2021/10/26 10:25:47;;;;;;;1.73;0.80;;;18.20;74.00;;;;;;5052031;28;20025;-66
2021/10/26 10:28:14;;;;;;;3.13;1.10;;;18.20;73.90;;;;;;5051566;28;20021;-66
2021/10/26 10:30:40;;;;;;;3.75;1.20;;;18.20;73.90;;;;;;5051034;28;20417;-66
2021/10/26 10:33:05;;;;;;;6.93;1.20;;;18.20;73.90;;;;;;5050712;28;20029;-67
2021/10/26 10:35:31;;;;;;;2.20;1.05;;;18.20;73.80;;;;;;5051878;28;20381;-66
2021/10/26 10:37:58;;;;;;;3.05;0.93;;;18.20;73.90;;;;;;5050853;28;20393;-66
2021/10/26 10:40:25;;;;;;;2.25;1.25;;;18.20;73.80;;;;;;5050635;28;20021;-66
2021/10/26 10:42:52;;;;;;;1.60;1.00;;;18.20;73.80;;;;;;5051575;28;20379;-67
2021/10/26 10:45:24;;;;;;;2.15;0.80;;;18.20;73.80;;;;;;5050459;28;20508;-66
2021/10/26 10:47:51;;;;;;;2.78;1.00;;;18.20;73.80;;;;;;5050688;28;20029;-66
2021/10/26 10:50:19;;;;;;;4.03;0.70;;;18.20;73.70;;;;;;5050434;28;20017;-66
2021/10/26 10:52:45;;;;;;;3.08;0.88;;;18.30;73.80;;;;;;5053038;28;20029;-66
2021/10/26 10:55:22;;;;;;;4.28;1.08;;;18.20;73.70;;;;;;5054330;28;20028;-66
2021/10/26 10:57:48;;;;;;;1.50;0.77;;;18.30;73.70;;;;;;5054101;28;20029;-66
2021/10/26 11:00:30;;;;;;;1.77;0.80;;;18.20;73.70;;;;;;5054115;28;20017;-66
2021/10/26 11:02:57;;;;;;;1.65;0.98;;;18.30;73.80;;;;;;5054427;28;20032;-66
2021/10/26 11:05:49;;;;;;;3.30;0.90;;;18.30;73.80;;;;;;5054000;28;20056;-66
2021/10/26 11:08:14;;;;;;;2.70;1.02;;;18.30;73.50;;;;;;5052783;28;20048;-67
2021/10/26 11:10:49;;;;;;;2.08;0.90;;;18.20;73.80;;;;;;5055317;28;20151;-66
2021/10/26 11:13:35;;;;;;;2.20;1.13;;;18.20;73.60;;;;;;5054959;28;20025;-66
2021/10/26 11:16:09;;;;;;;4.00;1.02;;;18.30;73.50;;;;;;5055121;28;20086;-66
2021/10/26 11:18:48;;;;;;;2.63;0.80;;;18.30;73.80;;;;;;5038346;28;20036;-66
2021/10/26 11:21:25;;;;;;;2.78;1.02;;;18.30;73.60;;;;;;5053657;28;20052;-66
2021/10/26 11:24:07;;;;;;;5.38;1.27;;;18.30;73.70;;;;;;5054977;28;20052;-66
2021/10/26 11:26:43;;;;;;;1.98;0.90;;;18.30;73.70;;;;;;5053476;28;20025;-66
2021/10/26 11:29:13;;;;;;;3.38;1.30;;;18.30;73.70;;;;;;5037160;28;20021;-66
2021/10/26 11:31:44;;;;;;;1.33;0.75;;;18.30;73.70;;;;;;5053681;28;20025;-66
2021/10/26 11:34:27;;;;;;;1.58;0.57;;;18.20;73.60;;;;;;5054903;28;20045;-66
2021/10/26 11:37:02;;;;;;;1.23;0.47;;;18.30;73.60;;;;;;5053714;28;20117;-66
2021/10/26 11:39:27;;;;;;;1.95;1.00;;;18.20;73.60;;;;;;5053466;28;20025;-66
2021/10/26 11:41:53;;;;;;;2.90;0.93;;;18.30;73.70;;;;;;5054453;28;20047;-66
2021/10/26 11:44:19;;;;;;;3.03;0.80;;;18.20;73.60;;;;;;5054447;28;20482;-66
2021/10/26 11:46:46;;;;;;;4.07;0.90;;;18.30;73.60;;;;;;5053371;28;20047;-66
2021/10/26 11:49:21;;;;;;;3.13;0.88;;;18.20;73.50;;;;;;5053347;28;20013;-66
2021/10/26 11:51:55;;;;;;;2.22;1.00;;;18.30;73.60;;;;;;5053490;28;20482;-66
2021/10/26 11:54:21;;;;;;;1.80;0.90;;;18.30;73.60;;;;;;5054062;28;20013;-66
2021/10/26 11:56:54;;;;;;;1.80;0.80;;;18.20;73.50;;;;;;5054590;28;20029;-66
2021/10/26 11:59:24;;;;;;;1.73;0.70;;;18.30;73.50;;;;;;5053256;28;20025;-66
2021/10/26 12:01:54;;;;;;;3.15;0.70;;;18.30;73.50;;;;;;5054185;28;20083;-66
2021/10/26 12:04:29;;;;;;;2.78;1.00;;;18.20;73.50;;;;;;5052914;28;20394;-66
2021/10/26 12:07:02;;;;;;;3.35;0.93;;;18.30;73.50;;;;;;5052768;28;20095;-66
2021/10/26 12:09:32;;;;;;;1.90;0.75;;;18.30;73.50;;;;;;5052840;28;20014;-66
2021/10/26 12:12:01;;;;;;;1.10;0.60;;;18.30;73.50;;;;;;5036544;28;20104;-67
2021/10/26 12:14:30;;;;;;;1.48;0.70;;;18.30;73.50;;;;;;5052873;28;20025;-66
2021/10/26 12:17:09;;;;;;;1.38;1.00;;;18.30;73.60;;;;;;5054130;28;20048;-66
2021/10/26 12:19:36;;;;;;;1.20;0.60;;;18.30;73.40;;;;;;5053831;28;20025;-66
2021/10/26 12:22:02;;;;;;;1.95;0.80;;;18.30;73.50;;;;;;5036452;28;20075;-66
2021/10/26 12:24:29;;;;;;;2.00;0.93;;;18.30;73.50;;;;;;5052211;28;20520;-66
2021/10/26 12:27:00;;;;;;;1.92;0.90;;;18.30;73.50;;;;;;5052688;28;20048;-66
2021/10/26 12:29:31;;;;;;;2.33;0.73;;;18.30;73.40;;;;;;5052630;28;20036;-66
2021/10/26 12:31:57;;;;;;;1.52;0.60;;;18.30;73.50;;;;;;5052579;28;20024;-66
2021/10/26 12:34:23;;;;;;;1.30;0.60;;;18.30;73.40;;;;;;5035781;28;20017;-66
2021/10/26 12:36:48;;;;;;;1.38;0.65;;;18.30;73.40;;;;;;5052856;28;20155;-66
2021/10/26 12:39:22;;;;;;;0.98;0.77;;;18.30;73.40;;;;;;5053179;28;20090;-66
2021/10/26 12:41:48;;;;;;;0.80;0.60;;;18.30;73.30;;;;;;5052473;28;20430;-66
2021/10/26 12:44:18;;;;;;;1.58;0.77;;;18.30;73.40;;;;;;5053692;28;20029;-66
2021/10/26 12:46:43;;;;;;;0.73;0.60;;;18.30;73.40;;;;;;5052409;28;20036;-66
2021/10/26 12:49:12;;;;;;;1.10;0.60;;;18.30;73.40;;;;;;5053505;28;20025;-66
2021/10/26 12:51:38;;;;;;;1.13;0.70;;;18.30;73.40;;;;;;5052087;28;20384;-66
2021/10/26 12:54:13;;;;;;;1.60;0.68;;;18.30;73.40;;;;;;5053222;28;20100;-66
2021/10/26 12:56:46;;;;;;;1.45;0.68;;;18.30;73.30;;;;;;5052036;28;20032;-66
2021/10/26 12:59:16;;;;;;;1.63;0.57;;;18.30;73.30;;;;;;5052050;28;20024;-66
2021/10/26 13:01:41;;;;;;;1.98;0.70;;;18.30;73.40;;;;;;5051883;28;20061;-66
2021/10/26 13:04:15;;;;;;;1.17;0.63;;;18.30;73.30;;;;;;5052110;28;20053;-66
2021/10/26 13:06:47;;;;;;;0.80;0.50;;;18.30;73.30;;;;;;5051561;28;20452;-66
2021/10/26 13:09:40;;;;;;;1.55;0.90;;;18.30;73.30;;;;;;5051682;28;20024;-66
2021/10/26 13:12:18;;;;;;;1.00;0.60;;;18.30;73.20;;;;;;5053071;28;20393;-66
2021/10/26 13:14:46;;;;;;;1.90;0.90;;;18.30;73.40;;;;;;5052860;28;20013;-66
2021/10/26 13:17:36;;;;;;;2.03;0.90;;;18.30;73.30;;;;;;5051380;28;20032;-66
2021/10/26 13:20:20;;;;;;;2.55;0.70;;;18.30;73.20;;;;;;5051753;28;20027;-66
2021/10/26 13:22:56;;;;;;;1.67;0.68;;;18.30;73.10;;;;;;5052530;28;20052;-66
2021/10/26 13:25:24;;;;;;;1.38;0.73;;;18.30;73.30;;;;;;5052872;28;20497;-66
2021/10/26 13:27:51;;;;;;;2.17;0.70;;;18.30;73.30;;;;;;5052741;28;20052;-66
2021/10/26 13:30:17;;;;;;;1.80;0.90;;;18.30;73.30;;;;;;5051569;28;20071;-66
2021/10/26 13:32:42;;;;;;;2.10;0.85;;;18.30;73.30;;;;;;5052427;28;20025;-66
2021/10/26 13:35:08;;;;;;;1.52;0.70;;;18.30;73.20;;;;;;5051430;28;20497;-66
2021/10/26 13:37:33;;;;;;;0.80;0.63;;;18.30;73.20;;;;;;5052071;28;20025;-66
2021/10/26 13:39:59;;;;;;;1.25;0.70;;;18.30;73.20;;;;;;5051331;28;20021;-66
2021/10/26 13:42:25;;;;;;;1.33;0.85;;;18.30;73.20;;;;;;5052323;28;20029;-66
2021/10/26 13:44:50;;;;;;;1.52;0.85;;;18.30;73.20;;;;;;5052490;28;20394;-66
2021/10/26 13:47:18;;;;;;;2.75;0.90;;;18.30;73.20;;;;;;5052374;28;20107;-66
2021/10/26 13:49:44;;;;;;;1.60;0.73;;;18.30;73.20;;;;;;5051143;28;20021;-66
2021/10/26 13:52:10;;;;;;;2.50;0.60;;;18.30;73.20;;;;;;5050817;28;20079;-67
2021/10/26 13:54:36;;;;;;;1.05;0.50;;;18.30;73.10;;;;;;5052299;28;20031;-66
2021/10/26 13:57:01;;;;;;;0.73;0.60;;;18.40;73.20;;;;;;5052288;28;20096;-66
2021/10/26 13:59:27;;;;;;;1.95;0.52;;;18.40;73.20;;;;;;5052263;28;20078;-66
2021/10/26 14:01:52;;;;;;;0.70;0.50;;;18.30;73.10;;;;;;5052102;28;20036;-66
2021/10/26 14:04:18;;;;;;;1.80;0.73;;;18.40;73.20;;;;;;5051101;28;20040;-66
2021/10/26 14:06:45;;;;;;;2.25;1.00;;;18.40;73.20;;;;;;5051398;28;20033;-66
2021/10/26 14:09:11;;;;;;;1.17;0.60;;;18.40;73.20;;;;;;5052227;28;20087;-66
2021/10/26 14:11:37;;;;;;;1.23;0.52;;;18.40;73.20;;;;;;5050939;28;20017;-66
2021/10/26 14:14:04;;;;;;;0.60;0.43;;;18.40;73.20;;;;;;5034344;28;20036;-66
2021/10/26 14:16:30;;;;;;;0.22;0.20;;;18.40;73.20;;;;;;5051931;28;20021;-66
2021/10/26 14:18:56;;;;;;;0.85;0.60;;;18.40;73.10;;;;;;5050969;28;20029;-66
2021/10/26 14:21:21;;;;;;;0.82;0.43;;;18.40;73.10;;;;;;5051833;28;20033;-66
2021/10/26 14:23:47;;;;;;;1.02;0.50;;;18.40;73.10;;;;;;5052021;28;20029;-66
2021/10/26 14:26:13;;;;;;;1.85;0.50;;;18.50;73.20;;;;;;5052097;28;20029;-66
2021/10/26 14:28:39;;;;;;;1.95;0.40;;;18.40;73.10;;;;;;5054567;28;20478;-66
2021/10/26 14:31:06;;;;;;;2.25;0.55;;;18.50;73.20;;;;;;5054834;28;20083;-66
2021/10/26 14:33:33;;;;;;;1.60;0.68;;;18.40;73.00;;;;;;5038282;28;20388;-66
2021/10/26 14:36:01;;;;;;;1.05;0.60;;;18.50;73.10;;;;;;5038189;28;20024;-66
2021/10/26 14:57:00;;;;;;;0.98;0.60;;;18.40;73.10;;;;;;5054595;28;20540;-66
2021/10/26 14:59:26;;;;;;;1.10;0.50;;;18.50;73.10;;;;;;5054364;28;20119;-66
2021/10/26 15:01:52;;;;;;;1.55;0.50;;;18.50;73.10;;;;;;5055364;28;20025;-66
2021/10/26 15:04:17;;;;;;;0.47;0.40;;;18.50;73.00;;;;;;5055265;28;20448;-66
2021/10/26 15:06:43;;;;;;;0.65;0.40;;;18.40;73.00;;;;;;5054837;28;20136;-66
2021/10/26 15:09:37;;;;;;;0.80;0.40;;;18.50;73.00;;;;;;5055429;28;20139;-66
2021/10/26 15:11:58;;;;;;;0.80;0.60;;;18.50;73.00;;;;;;5039916;28;20037;-66
2021/10/26 15:14:25;;;;;;;0.93;0.55;;;18.50;73.10;;;;;;5055307;28;20024;-66
2021/10/26 15:16:50;;;;;;;1.05;0.50;;;18.50;73.00;;;;;;5053764;28;20507;-66
2021/10/26 15:19:21;;;;;;;0.77;0.50;;;18.50;73.00;;;;;;5054840;28;20116;-66
2021/10/26 15:35:20;;;;;;;1.30;0.50;;;18.40;72.90;;;;;;5055032;28;20032;-66
2021/10/26 15:37:45;;;;;;;0.95;0.50;;;18.50;73.00;;;;;;5053429;28;20029;-66
2021/10/26 15:40:11;;;;;;;1.25;0.40;;;18.50;73.00;;;;;;5053073;28;20051;-66
2021/10/26 15:42:37;;;;;;;0.45;0.40;;;18.50;73.00;;;;;;5054681;28;20033;-66
2021/10/26 15:45:03;;;;;;;1.25;0.45;;;18.50;73.00;;;;;;5053539;28;20397;-66
2021/10/26 15:47:29;;;;;;;0.63;0.40;;;18.50;72.90;;;;;;5054198;28;20024;-66
2021/10/26 15:49:55;;;;;;;1.25;0.50;;;18.40;72.90;;;;;;5054399;28;20457;-66
2021/10/26 15:52:20;;;;;;;1.17;0.45;;;18.50;72.90;;;;;;5036825;28;20101;-66
2021/10/26 15:54:46;;;;;;;0.43;0.32;;;18.50;72.90;;;;;;5053201;28;20470;-66
2021/10/26 15:57:12;;;;;;;1.65;0.50;;;18.50;72.80;;;;;;5053328;28;20036;-66
2021/10/26 15:59:39;;;;;;;1.33;0.68;;;18.50;72.90;;;;;;5054311;28;20029;-67
2021/10/26 16:02:04;;;;;;;1.20;0.60;;;18.50;72.80;;;;;;5052834;28;20021;-66
2021/10/26 16:04:30;;;;;;;1.65;0.65;;;18.50;72.80;;;;;;5054268;28;20091;-67
2021/10/26 16:06:55;;;;;;;1.73;0.80;;;18.50;72.80;;;;;;5052593;28;20037;-66
2021/10/26 16:09:27;;;;;;;0.77;0.47;;;18.50;72.80;;;;;;5053191;28;20021;-66
2021/10/26 16:11:59;;;;;;;1.67;0.80;;;18.50;72.80;;;;;;5054079;28;20025;-66
2021/10/26 16:14:28;;;;;;;1.42;0.45;;;18.50;72.80;;;;;;5054063;28;20029;-66
2021/10/26 16:16:54;;;;;;;1.00;0.60;;;18.50;72.90;;;;;;5052610;28;20025;-66
2021/10/26 16:19:20;;;;;;;0.88;0.40;;;18.50;72.90;;;;;;5053034;28;20102;-66
2021/10/26 16:21:45;;;;;;;0.68;0.40;;;18.40;72.70;;;;;;5052745;28;20036;-66
2021/10/26 16:24:11;;;;;;;1.55;0.50;;;18.50;72.80;;;;;;5053896;28;20033;-66
2021/10/26 16:26:42;;;;;;;1.02;0.68;;;18.40;72.70;;;;;;5053868;28;20029;-66
2021/10/26 16:29:08;;;;;;;1.42;0.40;;;18.50;72.80;;;;;;5052755;28;20155;-66
2021/10/26 16:31:34;;;;;;;0.65;0.40;;;18.50;72.80;;;;;;5052411;28;20092;-66
2021/10/26 16:34:00;;;;;;;1.00;0.40;;;18.40;72.70;;;;;;5053642;28;20052;-67
2021/10/26 16:36:30;;;;;;;1.75;0.73;;;18.40;72.70;;;;;;5053712;28;20032;-66
2021/10/26 16:39:00;;;;;;;0.75;0.60;;;18.50;72.80;;;;;;5050924;28;22985;-73
2021/10/26 16:41:26;;;;;;;2.08;0.77;;;18.50;72.70;;;;;;5051541;28;20112;-73
2021/10/26 16:44:03;;;;;;;1.85;0.60;;;18.40;72.80;;;;;;5050487;28;20154;-71
2021/10/26 16:46:43;;;;;;;1.13;0.50;;;18.50;72.90;;;;;;5047425;28;20461;-71
2021/10/26 16:49:09;;;;;;;1.05;0.45;;;18.50;73.00;;;;;;5053454;28;20052;-73
2021/10/26 16:51:35;;;;;;;0.93;0.43;;;18.50;72.90;;;;;;5045588;28;20025;-71
2021/10/26 16:54:00;;;;;;;0.85;0.30;;;18.60;73.00;;;;;;5049071;28;20025;-71
2021/10/26 16:56:27;;;;;;;0.75;0.40;;;18.60;73.00;;;;;;5044374;28;20033;-74
2021/10/26 16:58:54;;;;;;;0.93;0.47;;;18.60;72.90;;;;;;5062529;28;20021;-74
2021/10/26 17:01:24;;;;;;;0.75;0.40;;;18.60;72.90;;;;;;5064429;28;20037;-77
2021/10/26 17:03:50;;;;;;;0.80;0.47;;;18.70;73.00;;;;;;5043426;28;20521;-79
2021/10/26 17:06:17;;;;;;;0.50;0.50;;;18.70;72.90;;;;;;5031551;28;20036;-78
2021/10/26 17:08:44;;;;;;;0.70;0.55;;;18.70;72.80;;;;;;5033578;28;20017;-78
2021/10/26 17:11:11;;;;;;;0.63;0.52;;;18.80;72.90;;;;;;5042738;28;20067;-77
2021/10/26 17:13:37;;;;;;;1.00;0.40;;;18.80;72.90;;;;;;5040952;28;20056;-78
2021/10/26 17:16:04;;;;;;;0.52;0.40;;;18.80;72.80;;;;;;5045214;28;20045;-78
2021/10/26 17:18:34;;;;;;;0.40;0.30;;;18.80;72.90;;;;;;5036066;28;20041;-77
2021/10/26 17:21:00;;;;;;;0.75;0.50;;;18.80;72.80;;;;;;5045694;28;20021;-74
2021/10/26 17:23:26;;;;;;;0.52;0.35;;;18.90;72.90;;;;;;5043740;28;20108;-72
2021/10/26 17:25:52;;;;;;;0.98;0.40;;;18.90;72.80;;;;;;5035875;28;20056;-73
2021/10/26 17:28:24;;;;;;;0.40;0.40;;;18.90;72.90;;;;;;5041648;28;20390;-76
2021/10/26 17:30:50;;;;;;;1.33;0.57;;;19.00;72.80;;;;;;5042126;28;20385;-73
2021/10/26 17:33:19;;;;;;;0.95;0.60;;;18.90;72.80;;;;;;5016103;28;20025;-67
2021/10/26 17:35:44;;;;;;;0.60;0.30;;;19.00;72.80;;;;;;5036875;28;20026;-67
2021/10/26 17:38:10;;;;;;;1.27;0.50;;;19.00;72.70;;;;;;5039359;28;20028;-67
2021/10/26 17:40:42;;;;;;;0.38;0.32;;;19.00;72.60;;;;;;5036441;28;20490;-67
2021/10/26 17:43:08;;;;;;;0.73;0.40;;;19.00;72.60;;;;;;5050578;28;20093;-67
2021/10/26 17:45:34;;;;;;;0.85;0.50;;;19.00;72.50;;;;;;5033834;28;20156;-67
2021/10/26 17:47:59;;;;;;;0.88;0.50;;;19.00;72.50;;;;;;5053496;28;20029;-67
2021/10/26 17:50:25;;;;;;;0.77;0.57;;;19.00;72.50;;;;;;5036025;28;20021;-67
2021/10/26 17:52:54;;;;;;;1.70;1.17;;;19.00;72.50;;;;;;5049056;28;20076;-67
2021/10/26 17:55:20;;;;;;;2.92;1.08;;;19.00;72.50;;;;;;5050810;28;20116;-67
2021/10/26 17:57:51;;;;;;;2.92;1.45;;;19.00;72.50;;;;;;5032453;28;20045;-67
2021/10/26 18:00:17;;;;;;;8.10;3.17;;;19.00;72.50;;;;;;5033789;28;20043;-67
2021/10/26 18:02:42;;;;;;;8.77;4.97;;;19.10;72.50;;;;;;5050239;28;20127;-67
2021/10/26 18:05:08;;;;;;;17.85;9.30;;;19.00;72.40;;;;;;5031960;28;20552;-77
2021/10/26 18:07:34;;;;;;;18.00;11.05;;;19.00;72.40;;;;;;5038925;28;20510;-73
2021/10/26 18:10:00;;;;;;;24.02;11.45;;;19.10;72.50;;;;;;5048790;28;20075;-75
2021/10/26 18:12:26;;;;;;;21.83;11.45;;;19.10;72.60;;;;;;5054169;28;20059;-71
2021/10/26 18:14:53;;;;;;;20.45;11.70;;;19.10;72.60;;;;;;5071607;28;20025;-68
2021/10/26 18:17:19;;;;;;;20.67;12.02;;;19.10;72.50;;;;;;5062564;28;20036;-70
2021/10/26 18:19:44;;;;;;;21.92;11.77;;;19.20;72.60;;;;;;5064005;28;20037;-71
2021/10/26 18:22:10;;;;;;;24.75;12.68;;;19.20;72.50;;;;;;5062327;28;20021;-67
2021/10/26 18:24:37;;;;;;;21.83;11.85;;;19.20;72.50;;;;;;5059315;28;20040;-67
2021/10/26 18:27:03;;;;;;;21.33;12.45;;;19.30;72.60;;;;;;5058795;28;20070;-69
2021/10/26 18:29:31;;;;;;;25.77;13.05;;;19.30;72.50;;;;;;5063944;28;20021;-69
2021/10/26 18:31:57;;;;;;;27.20;13.20;;;19.30;72.50;;;;;;5063234;28;20492;-68
2021/10/26 18:34:22;;;;;;;22.38;12.70;;;19.30;72.50;;;;;;5062138;28;20067;-69
2021/10/26 18:36:48;;;;;;;22.15;12.93;;;19.30;72.40;;;;;;5046007;28;20024;-68
2021/10/26 18:39:14;;;;;;;22.77;13.32;;;19.30;72.40;;;;;;5056347;28;20163;-69
2021/10/26 18:41:40;;;;;;;24.23;14.25;;;19.40;72.40;;;;;;5061683;28;20493;-69
2021/10/26 18:46:37;;;;;;;22.48;12.73;;;19.30;72.20;;;;;;5056364;28;20051;-68
2021/10/26 18:49:03;;;;;;;24.92;14.52;;;19.40;72.30;;;;;;5060173;28;20481;-68
2021/10/26 18:51:29;;;;;;;21.42;13.85;;;19.40;72.20;;;;;;5059154;28;20561;-69
2021/10/26 18:53:55;;;;;;;23.73;13.30;;;19.40;72.20;;;;;;5060252;28;20139;-67
2021/10/26 18:56:20;;;;;;;25.63;14.85;;;19.40;72.20;;;;;;5061370;28;20013;-70
2021/10/26 18:58:46;;;;;;;24.08;13.60;;;19.40;72.20;;;;;;5062274;28;20043;-71
2021/10/26 19:01:16;;;;;;;24.63;14.70;;;19.40;72.20;;;;;;5046506;28;20391;-69
2021/10/26 19:03:42;;;;;;;28.55;14.35;;;19.40;72.10;;;;;;5034228;28;20021;-71
2021/10/26 19:06:13;;;;;;;25.27;14.35;;;19.50;72.10;;;;;;5039320;28;20518;-67
2021/10/26 19:08:39;;;;;;;21.98;13.85;;;19.50;72.10;;;;;;5037492;28;20502;-70
2021/10/26 19:11:05;;;;;;;25.60;13.85;;;19.50;72.10;;;;;;5035671;28;20014;-69
2021/10/26 19:13:31;;;;;;;22.13;13.00;;;19.50;72.00;;;;;;5036260;28;20729;-67
2021/10/26 19:15:57;;;;;;;23.52;12.93;;;19.50;72.00;;;;;;5041965;28;20018;-67
2021/10/26 19:18:23;;;;;;;24.25;13.15;;;19.50;71.90;;;;;;5040149;28;20025;-67
2021/10/26 19:20:48;;;;;;;23.38;12.93;;;19.50;71.90;;;;;;5040388;28;20506;-67
2021/10/26 19:23:14;;;;;;;20.73;12.35;;;19.50;71.90;;;;;;5038641;28;20028;-67
2021/10/26 19:25:40;;;;;;;19.50;11.60;;;19.50;71.90;;;;;;5038468;28;20024;-67
2021/10/26 19:28:06;;;;;;;20.35;12.38;;;19.50;71.80;;;;;;5042717;28;20025;-67
2021/10/26 19:30:31;;;;;;;21.02;12.45;;;19.50;71.80;;;;;;5043559;28;20036;-75
2021/10/26 19:32:57;;;;;;;20.80;11.88;;;19.40;71.60;;;;;;5060570;28;20044;-77
2021/10/26 19:35:26;;;;;;;22.73;11.88;;;19.40;71.80;;;;;;5053119;28;20064;-74
2021/10/26 19:37:53;;;;;;;23.33;12.90;;;19.50;71.90;;;;;;5055248;28;20020;-74